createdAt,value
2023-02-05T00:01:19.884Z,7.25
2023-02-05T00:03:47.774Z,7.26
2023-02-05T00:06:15.803Z,7.28
2023-02-05T00:08:43.713Z,7.29
2023-02-05T00:11:11.611Z,7.22
2023-02-05T00:13:40.473Z,7.20
2023-02-05T00:16:08.914Z,7.17
2023-02-05T00:18:38.674Z,7.21
2023-02-05T00:21:06.760Z,7.21
2023-02-05T00:23:34.663Z,7.18
2023-02-05T00:26:02.482Z,7.14
2023-02-05T00:28:32.338Z,7.11
2023-02-05T00:31:00.422Z,7.10
2023-02-05T00:33:28.645Z,7.10
2023-02-05T00:35:58.005Z,7.07
2023-02-05T00:38:25.871Z,7.07
2023-02-05T00:40:53.664Z,7.09
2023-02-05T00:43:21.670Z,7.05
2023-02-05T00:45:49.595Z,7.03
2023-02-05T00:48:17.564Z,7.05
2023-02-05T00:50:45.586Z,7.05
2023-02-05T00:53:14.873Z,7.04
2023-02-05T00:55:43.371Z,7.00
2023-02-05T00:58:11.291Z,6.94
2023-02-05T01:00:39.229Z,6.93
2023-02-05T01:03:07.210Z,6.91
2023-02-05T01:05:35.506Z,6.89
2023-02-05T01:08:03.835Z,6.87
2023-02-05T01:10:33.652Z,6.87
2023-02-05T01:13:01.718Z,6.86
2023-02-05T01:15:29.609Z,6.85
2023-02-05T01:17:58.730Z,6.82
2023-02-05T01:20:27.020Z,6.80
2023-02-05T01:22:54.957Z,6.79
2023-02-05T01:25:22.953Z,6.72
2023-02-05T01:27:52.671Z,6.73
2023-02-05T01:30:20.724Z,6.72
2023-02-05T01:32:48.525Z,6.72
2023-02-05T01:35:16.425Z,6.70
2023-02-05T01:37:44.289Z,6.69
2023-02-05T01:40:14.983Z,6.68
2023-02-05T01:42:43.152Z,6.66
2023-02-05T01:45:29.743Z,6.62
2023-02-05T01:48:00.292Z,6.65
2023-02-05T01:50:30.900Z,6.63
2023-02-05T01:53:00.168Z,6.64
2023-02-05T01:55:29.222Z,6.65
2023-02-05T01:57:57.720Z,6.62
2023-02-05T02:00:25.732Z,6.58
2023-02-05T02:02:53.643Z,6.59
2023-02-05T02:05:23.091Z,6.57
2023-02-05T02:07:50.996Z,6.52
2023-02-05T02:10:19.619Z,6.48
2023-02-05T02:12:49.034Z,6.50
2023-02-05T02:15:18.385Z,6.48
2023-02-05T02:17:47.680Z,6.50
2023-02-05T02:20:17.150Z,6.49
2023-02-05T02:22:55.259Z,6.46
2023-02-05T02:25:35.091Z,6.45
2023-02-05T02:28:08.463Z,6.45
2023-02-05T02:30:41.819Z,6.42
2023-02-05T02:33:13.975Z,6.39
2023-02-05T02:35:45.753Z,6.36
2023-02-05T02:38:17.302Z,6.36
2023-02-05T02:40:47.883Z,6.32
2023-02-05T02:43:18.420Z,6.29
2023-02-05T02:45:48.937Z,6.28
2023-02-05T02:48:19.310Z,6.32
2023-02-05T02:50:49.867Z,6.31
2023-02-05T02:53:20.326Z,6.29
2023-02-05T02:55:49.415Z,6.23
2023-02-05T02:58:21.988Z,6.17
2023-02-05T03:00:50.631Z,6.16
2023-02-05T03:03:20.818Z,6.15
2023-02-05T03:05:50.497Z,6.09
2023-02-05T03:08:20.854Z,6.12
2023-02-05T03:10:52.182Z,6.07
2023-02-05T03:13:21.386Z,6.08
2023-02-05T03:15:49.582Z,6.09
2023-02-05T03:18:19.583Z,6.11
2023-02-05T03:20:51.036Z,6.07
2023-02-05T03:23:19.559Z,6.01
2023-02-05T03:25:47.504Z,6.02
2023-02-05T03:28:15.566Z,6.00
2023-02-05T03:30:53.535Z,5.98
2023-02-05T03:33:42.239Z,6.01
2023-02-05T03:36:14.870Z,5.98
2023-02-05T03:38:53.358Z,5.95
2023-02-05T03:41:47.316Z,5.95
2023-02-05T03:44:21.692Z,5.90
2023-02-05T03:46:57.739Z,5.89
2023-02-05T03:49:31.628Z,5.87
2023-02-05T03:52:03.391Z,5.86
2023-02-05T03:54:35.759Z,5.87
2023-02-05T03:57:06.988Z,5.89
2023-02-05T03:59:35.185Z,5.89
2023-02-05T04:02:04.916Z,5.89
2023-02-05T04:04:33.153Z,5.90
2023-02-05T04:07:01.069Z,5.92
2023-02-05T04:09:28.933Z,5.89
2023-02-05T04:11:56.896Z,5.89
2023-02-05T04:14:24.839Z,5.87
2023-02-05T04:16:52.747Z,5.85
2023-02-05T04:19:22.000Z,5.78
2023-02-05T04:21:49.782Z,5.80
2023-02-05T04:24:17.868Z,5.78
2023-02-05T04:26:45.823Z,5.77
2023-02-05T04:29:13.719Z,5.72
2023-02-05T04:31:41.739Z,5.67
2023-02-05T04:34:09.615Z,5.65
2023-02-05T04:36:40.182Z,5.70
2023-02-05T04:39:08.138Z,5.72
2023-02-05T04:41:35.968Z,5.70
2023-02-05T04:44:03.847Z,5.69
2023-02-05T04:46:31.782Z,5.70
2023-02-05T04:48:59.683Z,5.67
2023-02-05T04:51:27.572Z,5.64
2023-02-05T04:53:56.921Z,5.62
2023-02-05T04:56:24.765Z,5.59
2023-02-05T04:58:52.800Z,5.55
2023-02-05T05:01:21.951Z,5.58
2023-02-05T05:03:50.342Z,5.55
2023-02-05T05:06:18.832Z,5.57
2023-02-05T05:08:46.867Z,5.55
2023-02-05T05:11:17.392Z,5.56
2023-02-05T05:13:45.386Z,5.52
2023-02-05T05:16:13.760Z,5.51
2023-02-05T05:18:41.756Z,5.47
2023-02-05T05:21:09.719Z,5.44
2023-02-05T05:23:38.189Z,5.48
2023-02-05T05:26:07.226Z,5.47
2023-02-05T05:28:36.884Z,5.43
2023-02-05T05:31:08.631Z,5.41
2023-02-05T05:33:36.711Z,5.41
2023-02-05T05:36:06.994Z,5.36
2023-02-05T05:38:34.956Z,5.36
2023-02-05T05:41:20.321Z,5.34
2023-02-05T05:43:49.974Z,5.34
2023-02-05T05:46:22.121Z,5.33
2023-02-05T05:48:51.222Z,5.34
2023-02-05T05:51:19.311Z,5.33
2023-02-05T05:53:47.692Z,5.26
2023-02-05T05:56:15.654Z,5.25
2023-02-05T05:58:44.531Z,5.30
2023-02-05T06:01:14.441Z,5.23
2023-02-05T06:03:42.430Z,5.25
2023-02-05T06:06:11.685Z,5.26
2023-02-05T06:08:39.494Z,5.28
2023-02-05T06:11:07.851Z,5.29
2023-02-05T06:13:36.015Z,5.25
2023-02-05T06:16:04.088Z,5.23
2023-02-05T06:18:33.568Z,5.24
2023-02-05T06:21:03.622Z,5.24
2023-02-05T06:23:31.712Z,5.21
2023-02-05T06:25:59.725Z,5.13
2023-02-05T06:28:27.756Z,5.12
2023-02-05T06:30:55.761Z,5.13
2023-02-05T06:33:23.617Z,5.13
2023-02-05T06:35:52.940Z,5.11
2023-02-05T06:38:20.941Z,5.06
2023-02-05T06:40:49.190Z,5.02
2023-02-05T06:43:17.122Z,5.03
2023-02-05T06:45:44.994Z,5.02
2023-02-05T06:48:13.070Z,4.98
2023-02-05T06:50:40.886Z,4.98
2023-02-05T06:53:11.852Z,5.01
2023-02-05T06:55:39.908Z,5.06
2023-02-05T06:58:08.569Z,5.04
2023-02-05T07:00:36.583Z,5.04
2023-02-05T07:03:04.889Z,5.00
2023-02-05T07:05:34.133Z,5.02
2023-02-05T07:08:04.160Z,5.02
2023-02-05T07:10:33.471Z,4.98
2023-02-05T07:13:01.357Z,4.90
2023-02-05T07:15:29.415Z,4.91
2023-02-05T07:17:57.376Z,4.83
2023-02-05T07:20:25.470Z,4.85
2023-02-05T07:22:53.446Z,4.84
2023-02-05T07:25:21.388Z,4.85
2023-02-05T07:27:50.648Z,4.86
2023-02-05T07:30:18.902Z,4.88
2023-02-05T07:32:46.680Z,4.91
2023-02-05T07:35:14.664Z,4.95
2023-02-05T07:37:42.605Z,4.97
2023-02-05T07:40:10.904Z,4.97
2023-02-05T07:42:38.782Z,4.97
2023-02-05T07:45:08.839Z,4.94
2023-02-05T07:47:36.662Z,4.94
2023-02-05T07:50:06.332Z,4.95
2023-02-05T07:52:34.529Z,4.96
2023-02-05T07:55:02.445Z,4.95
2023-02-05T07:57:30.531Z,4.97
2023-02-05T07:59:58.462Z,4.92
2023-02-05T08:02:27.781Z,4.91
2023-02-05T08:04:55.672Z,4.92
2023-02-05T08:07:23.625Z,4.90
2023-02-05T08:09:51.448Z,4.94
2023-02-05T08:12:19.381Z,4.96
2023-02-05T08:14:47.361Z,4.98
2023-02-05T08:17:15.300Z,4.98
2023-02-05T08:19:44.542Z,4.99
2023-02-05T08:22:12.504Z,4.96
2023-02-05T08:24:40.358Z,4.97
2023-02-05T08:27:08.184Z,4.96
2023-02-05T08:29:36.139Z,4.97
2023-02-05T08:32:03.996Z,4.98
2023-02-05T08:34:31.907Z,4.98
2023-02-05T08:37:01.326Z,5.00
2023-02-05T08:39:29.254Z,5.04
2023-02-05T08:41:57.265Z,5.06
2023-02-05T08:44:25.318Z,5.09
2023-02-05T08:46:53.381Z,5.09
2023-02-05T08:49:21.189Z,5.15
2023-02-05T08:51:49.417Z,5.19
2023-02-05T08:54:18.651Z,5.18
2023-02-05T08:56:46.988Z,5.22
2023-02-05T08:59:14.965Z,5.22
2023-02-05T09:01:43.395Z,5.25
2023-02-05T09:04:13.700Z,5.27
2023-02-05T09:06:41.901Z,5.33
2023-02-05T09:09:10.005Z,5.35
2023-02-05T09:11:39.699Z,5.43
2023-02-05T09:14:07.964Z,5.50
2023-02-05T09:16:36.334Z,5.54
2023-02-05T09:19:04.367Z,5.60
2023-02-05T09:21:32.188Z,5.66
2023-02-05T09:24:00.252Z,5.70
2023-02-05T09:26:28.268Z,5.77
2023-02-05T09:28:57.586Z,5.80
2023-02-05T09:31:25.879Z,5.82
2023-02-05T09:33:55.783Z,5.85
2023-02-05T09:36:24.227Z,5.88
2023-02-05T09:39:05.016Z,5.93
2023-02-05T09:41:45.951Z,5.97
2023-02-05T09:44:18.475Z,5.97
2023-02-05T09:46:52.048Z,6.01
2023-02-05T09:49:22.799Z,6.11
2023-02-05T09:51:52.776Z,6.18
2023-02-05T09:54:23.829Z,6.26
2023-02-05T09:56:52.647Z,6.34
2023-02-05T09:59:24.464Z,6.40
2023-02-05T10:01:53.609Z,6.44
2023-02-05T10:04:21.555Z,6.52
2023-02-05T10:07:14.829Z,6.60
2023-02-05T10:09:57.744Z,6.66
2023-02-05T10:12:33.972Z,6.74
2023-02-05T10:15:13.021Z,6.79
2023-02-05T10:17:47.749Z,6.84
2023-02-05T10:20:21.201Z,6.90
2023-02-05T10:22:55.530Z,6.91
2023-02-05T10:25:30.444Z,6.98
2023-02-05T10:28:01.958Z,7.01
2023-02-05T10:30:33.159Z,7.08
2023-02-05T10:33:01.865Z,7.08
2023-02-05T10:35:36.139Z,7.08
2023-02-05T10:38:07.171Z,7.08
2023-02-05T10:40:39.417Z,7.08
2023-02-05T10:43:16.946Z,7.09
2023-02-05T10:45:46.183Z,7.11
2023-02-05T10:48:27.257Z,7.13
2023-02-05T10:50:58.995Z,7.16
2023-02-05T10:53:28.231Z,7.27
2023-02-05T10:55:56.251Z,7.38
2023-02-05T10:58:37.957Z,7.47
2023-02-05T11:01:07.976Z,7.58
2023-02-05T11:03:36.898Z,7.64
2023-02-05T11:06:09.264Z,7.69
2023-02-05T11:08:38.282Z,7.74
2023-02-05T11:11:06.553Z,7.75
2023-02-05T11:13:36.577Z,7.75
2023-02-05T11:16:05.738Z,7.76
2023-02-05T11:19:25.234Z,7.75
2023-02-05T11:21:55.398Z,7.75
2023-02-05T11:24:25.242Z,7.76
2023-02-05T11:27:12.726Z,7.74
2023-02-05T11:29:40.687Z,7.77
2023-02-05T11:32:19.319Z,7.80
2023-02-05T11:34:48.745Z,7.89
2023-02-05T11:37:18.254Z,7.93
2023-02-05T11:39:47.434Z,7.94
2023-02-05T11:42:20.303Z,7.98
2023-02-05T11:44:50.186Z,8.04
2023-02-05T11:47:25.190Z,8.08
2023-02-05T11:49:54.878Z,8.10
2023-02-05T11:52:26.830Z,8.14
2023-02-05T11:54:55.176Z,8.25
2023-02-05T11:57:32.429Z,8.32
2023-02-05T12:00:01.303Z,8.38
2023-02-05T12:02:31.655Z,8.35
2023-02-05T12:05:04.057Z,8.37
2023-02-05T12:07:36.563Z,8.37
2023-02-05T12:10:04.808Z,8.40
2023-02-05T12:12:37.373Z,8.49
2023-02-05T12:15:12.004Z,8.53
2023-02-05T12:17:41.864Z,8.59
2023-02-05T12:20:30.507Z,8.64
2023-02-05T12:23:11.089Z,8.73
2023-02-05T12:25:43.960Z,8.81
2023-02-05T12:28:21.031Z,8.93
2023-02-05T12:30:55.207Z,8.99
2023-02-05T12:33:31.436Z,9.07
2023-02-05T12:36:07.698Z,9.15
2023-02-05T12:38:45.045Z,9.23
2023-02-05T12:41:20.434Z,9.26
2023-02-05T12:45:00.908Z,9.38
2023-02-05T12:47:49.097Z,9.39
2023-02-05T12:50:36.324Z,9.40
2023-02-05T12:53:21.075Z,9.33
2023-02-05T12:56:07.072Z,9.34
2023-02-05T12:58:38.950Z,9.31
2023-02-05T13:01:27.234Z,9.31
2023-02-05T13:04:01.248Z,9.30
2023-02-05T13:06:34.969Z,9.33
2023-02-05T13:09:07.985Z,9.32
2023-02-05T13:11:42.311Z,9.35
2023-02-05T13:14:18.873Z,9.38
2023-02-05T13:16:53.754Z,9.39
2023-02-05T13:19:29.601Z,9.33
2023-02-05T13:22:22.660Z,9.30
2023-02-05T13:25:10.864Z,9.28
2023-02-05T13:28:00.755Z,9.26
2023-02-05T13:30:36.658Z,9.25
2023-02-05T13:33:08.308Z,9.28
2023-02-05T13:35:45.106Z,9.31
2023-02-05T13:38:41.262Z,9.28
2023-02-05T13:41:43.222Z,9.24
2023-02-05T13:44:23.577Z,9.23
2023-02-05T13:47:20.028Z,9.25
2023-02-05T13:50:29.406Z,9.29
2023-02-05T13:53:13.884Z,9.37
2023-02-05T13:56:12.155Z,9.45
2023-02-05T13:58:47.496Z,9.52
2023-02-05T14:01:22.407Z,9.54
2023-02-05T14:03:58.594Z,9.54
2023-02-05T14:06:32.076Z,9.55
2023-02-05T14:09:04.981Z,9.58
2023-02-05T14:11:53.941Z,9.58
2023-02-05T14:14:26.231Z,9.58
2023-02-05T14:16:56.136Z,9.55
2023-02-05T14:19:27.813Z,9.50
2023-02-05T14:22:01.527Z,9.45
2023-02-05T14:24:41.167Z,9.45
2023-02-05T14:27:49.109Z,9.45
2023-02-05T14:30:48.566Z,9.46
2023-02-05T14:33:38.007Z,9.52
2023-02-05T14:36:34.324Z,9.54
2023-02-05T14:39:06.103Z,9.53
2023-02-05T14:41:50.849Z,9.51
2023-02-05T14:44:26.513Z,9.48
2023-02-05T14:47:02.590Z,9.43
2023-02-05T14:49:38.137Z,9.39
2023-02-05T14:52:09.651Z,9.31
2023-02-05T14:54:43.188Z,9.23
2023-02-05T14:57:23.118Z,9.13
2023-02-05T14:59:55.595Z,9.08
2023-02-05T15:02:49.626Z,8.98
2023-02-05T15:05:22.994Z,8.92
2023-02-05T15:07:54.785Z,8.84
2023-02-05T15:10:28.320Z,8.79
2023-02-05T15:13:04.459Z,8.76
2023-02-05T15:15:35.873Z,8.74
2023-02-05T15:18:05.914Z,8.70
2023-02-05T15:20:38.151Z,8.69
2023-02-05T15:23:19.562Z,8.68
2023-02-05T15:25:55.710Z,8.65
2023-02-05T15:28:31.861Z,8.60
2023-02-05T15:31:10.265Z,8.55
2023-02-05T15:33:47.672Z,8.50
2023-02-05T15:36:22.859Z,8.44
2023-02-05T15:39:02.773Z,8.42
2023-02-05T15:41:33.614Z,8.38
2023-02-05T15:44:05.068Z,8.35
2023-02-05T15:46:34.741Z,8.36
2023-02-05T15:49:03.108Z,8.33
2023-02-05T15:51:34.237Z,8.32
2023-02-05T15:54:04.260Z,8.28
2023-02-05T15:56:36.514Z,8.28
2023-02-05T15:59:14.919Z,8.27
2023-02-05T16:01:48.104Z,8.26
2023-02-05T16:04:20.867Z,8.25
2023-02-05T16:06:49.241Z,8.27
2023-02-05T16:09:19.381Z,8.26
2023-02-05T16:11:48.520Z,8.25
2023-02-05T16:14:19.788Z,8.23
2023-02-05T16:17:01.230Z,8.22
2023-02-05T16:19:33.621Z,8.20
2023-02-05T16:22:08.997Z,8.18
2023-02-05T16:24:42.500Z,8.13
2023-02-05T16:27:15.258Z,8.09
2023-02-05T16:29:48.559Z,8.05
2023-02-05T16:32:26.514Z,8.04
2023-02-05T16:34:54.749Z,8.01
2023-02-05T16:37:28.380Z,7.98
2023-02-05T16:39:58.340Z,7.94
2023-02-05T16:42:34.298Z,7.93
2023-02-05T16:45:21.442Z,7.88
2023-02-05T16:48:22.890Z,7.84
2023-02-05T16:50:52.263Z,7.80
2023-02-05T16:53:26.340Z,7.75
2023-02-05T16:55:59.399Z,7.69
2023-02-05T16:58:32.844Z,7.64
2023-02-05T17:01:06.057Z,7.60
2023-02-05T17:03:37.540Z,7.56
2023-02-05T17:06:09.297Z,7.52
2023-02-05T17:08:38.582Z,7.47
2023-02-05T17:11:09.851Z,7.41
2023-02-05T17:13:40.073Z,7.36
2023-02-05T17:16:26.851Z,7.33
2023-02-05T17:19:01.598Z,7.25
2023-02-05T17:21:31.597Z,7.21
2023-02-05T17:24:01.711Z,7.16
2023-02-05T17:26:32.940Z,7.13
2023-02-05T17:29:02.805Z,7.10
2023-02-05T17:31:36.648Z,7.07
2023-02-05T17:34:05.146Z,7.03
2023-02-05T17:36:33.321Z,6.98
2023-02-05T17:39:01.547Z,6.98
2023-02-05T17:41:50.789Z,6.94
2023-02-05T17:44:22.257Z,6.89
2023-02-05T17:46:54.251Z,6.87
2023-02-05T17:49:22.770Z,6.83
2023-02-05T17:51:51.283Z,6.82
2023-02-05T17:54:21.904Z,6.78
2023-02-05T17:56:51.180Z,6.76
2023-02-05T17:59:21.198Z,6.75
2023-02-05T18:01:51.916Z,6.70
2023-02-05T18:04:20.422Z,6.69
2023-02-05T18:06:50.320Z,6.68
2023-02-05T18:09:20.177Z,6.64
2023-02-05T18:11:48.432Z,6.62
2023-02-05T18:14:16.755Z,6.59
2023-02-05T18:16:45.001Z,6.58
2023-02-05T18:19:15.025Z,6.56
2023-02-05T18:21:43.198Z,6.51
2023-02-05T18:24:11.379Z,6.51
2023-02-05T18:26:39.567Z,6.49
2023-02-05T18:29:07.795Z,6.43
2023-02-05T18:31:36.256Z,6.38
2023-02-05T18:34:04.405Z,6.36
2023-02-05T18:36:33.925Z,6.33
2023-02-05T18:39:02.281Z,6.33
2023-02-05T18:41:31.595Z,6.30
2023-02-05T18:44:00.791Z,6.28
2023-02-05T18:46:30.233Z,6.25
2023-02-05T18:48:58.345Z,6.23
2023-02-05T18:51:26.499Z,6.23
2023-02-05T18:53:56.172Z,6.21
2023-02-05T18:56:26.702Z,6.21
2023-02-05T18:58:59.276Z,6.16
2023-02-05T19:01:29.297Z,6.18
2023-02-05T19:03:57.757Z,6.17
2023-02-05T19:06:25.866Z,6.15
2023-02-05T19:08:57.290Z,6.16
2023-02-05T19:11:27.503Z,6.12
2023-02-05T19:13:57.472Z,6.07
2023-02-05T19:16:27.804Z,6.04
2023-02-05T19:18:56.360Z,6.03
2023-02-05T19:21:26.849Z,6.02
2023-02-05T19:23:58.518Z,5.98
2023-02-05T19:26:28.358Z,5.95
2023-02-05T19:28:58.506Z,5.93
2023-02-05T19:31:28.495Z,5.90
2023-02-05T19:33:57.271Z,5.89
2023-02-05T19:36:28.058Z,5.88
2023-02-05T19:38:57.777Z,5.85
2023-02-05T19:41:27.745Z,5.84
2023-02-05T19:43:57.875Z,5.80
2023-02-05T19:46:28.280Z,5.80
2023-02-05T19:48:57.381Z,5.79
2023-02-05T19:51:25.584Z,5.76
2023-02-05T19:53:53.750Z,5.76
2023-02-05T19:56:24.176Z,5.71
2023-02-05T19:58:54.031Z,5.67
2023-02-05T20:01:24.663Z,5.67
2023-02-05T20:03:54.126Z,5.65
2023-02-05T20:06:24.566Z,5.63
2023-02-05T20:08:52.962Z,5.63
2023-02-05T20:11:21.733Z,5.61
2023-02-05T20:13:51.605Z,5.58
2023-02-05T20:16:21.551Z,5.54
2023-02-05T20:18:54.713Z,5.52
2023-02-05T20:21:23.443Z,5.49
2023-02-05T20:23:52.241Z,5.46
2023-02-05T20:26:22.369Z,5.44
2023-02-05T20:29:09.256Z,5.42
2023-02-05T20:31:43.046Z,5.39
2023-02-05T20:34:18.116Z,5.42
2023-02-05T20:36:47.140Z,5.39
2023-02-05T20:39:17.284Z,5.38
2023-02-05T20:41:46.309Z,5.36
2023-02-05T20:44:16.505Z,5.35
2023-02-05T20:46:45.236Z,5.34
2023-02-05T20:49:14.185Z,5.32
2023-02-05T20:51:43.148Z,5.30
2023-02-05T20:54:11.739Z,5.27
2023-02-05T20:56:40.084Z,5.28
2023-02-05T20:59:09.401Z,5.27
2023-02-05T21:01:40.606Z,5.27
2023-02-05T21:04:10.512Z,5.25
2023-02-05T21:06:40.337Z,5.23
2023-02-05T21:09:10.324Z,5.20
2023-02-05T21:11:39.058Z,5.23
2023-02-05T21:14:08.293Z,5.25
2023-02-05T21:16:39.037Z,5.24
2023-02-05T21:19:08.307Z,5.26
2023-02-05T21:21:38.368Z,5.25
2023-02-05T21:24:09.043Z,5.24
2023-02-05T21:26:38.731Z,5.24
2023-02-05T21:29:10.234Z,5.23
2023-02-05T21:31:40.444Z,5.22
2023-02-05T21:34:10.344Z,5.16
2023-02-05T21:36:38.492Z,5.13
2023-02-05T21:39:06.792Z,5.11
2023-02-05T21:41:35.205Z,5.10
2023-02-05T21:44:03.433Z,5.08
2023-02-05T21:46:31.745Z,5.06
2023-02-05T21:49:02.175Z,5.03
2023-02-05T21:51:33.214Z,5.01
2023-02-05T21:54:03.875Z,5.00
2023-02-05T21:56:34.803Z,5.00
2023-02-05T21:59:03.165Z,4.94
2023-02-05T22:01:33.031Z,4.93
2023-02-05T22:04:04.566Z,4.93
2023-02-05T22:06:34.833Z,4.93
2023-02-05T22:09:04.267Z,4.92
2023-02-05T22:11:32.696Z,4.90
2023-02-05T22:14:01.159Z,4.87
2023-02-05T22:16:31.740Z,4.88
2023-02-05T22:19:02.716Z,4.90
2023-02-05T22:21:33.389Z,4.86
2023-02-05T22:24:02.726Z,4.84
2023-02-05T22:26:32.547Z,4.82
2023-02-05T22:29:02.012Z,4.82
2023-02-05T22:31:31.031Z,4.80
2023-02-05T22:33:59.728Z,4.78
2023-02-05T22:36:31.276Z,4.76
2023-02-05T22:38:59.848Z,4.77
2023-02-05T22:41:30.018Z,4.78
2023-02-05T22:44:00.028Z,4.79
2023-02-05T22:46:30.576Z,4.78
2023-02-05T22:49:00.411Z,4.77
2023-02-05T22:51:32.316Z,4.78
2023-02-05T22:54:01.306Z,4.76
2023-02-05T22:56:30.091Z,4.76
2023-02-05T22:59:00.264Z,4.73
2023-02-05T23:01:31.951Z,4.74
2023-02-05T23:04:00.815Z,4.72
2023-02-05T23:06:32.399Z,4.74
2023-02-05T23:09:02.389Z,4.73
2023-02-05T23:11:32.766Z,4.74
2023-02-05T23:14:02.124Z,4.72
2023-02-05T23:16:32.751Z,4.73
2023-02-05T23:19:02.938Z,4.70
2023-02-05T23:21:34.560Z,4.69
2023-02-05T23:24:03.327Z,4.70
2023-02-05T23:26:33.594Z,4.64
2023-02-05T23:29:02.001Z,4.64
2023-02-05T23:31:30.824Z,4.65
2023-02-05T23:33:59.211Z,4.65
2023-02-05T23:36:27.483Z,4.68
2023-02-05T23:38:57.089Z,4.67
2023-02-05T23:41:37.576Z,4.68
2023-02-05T23:44:08.292Z,4.67
2023-02-05T23:46:37.279Z,4.69
2023-02-05T23:49:05.959Z,4.69
2023-02-05T23:51:34.274Z,4.66
2023-02-05T23:54:04.188Z,4.68
2023-02-05T23:56:32.854Z,4.71
2023-02-05T23:59:01.148Z,4.67
